Private Wetterstation Sandau
Wetterdaten: Dienstag, 06.03.2012
Datum Zeit Temp. A. Feuchte A. Luftdruck Regen Wind Richtung Richtung Taupunkt Windchill
06.03.2012 00:02 1,2 C 61 % 1025,8 hPa 0,0 l/m 6,5 km/h (2 Bft) O 90 -5,5 C -0,8 C
06.03.2012 00:07 1,1 C 62 % 1025,6 hPa 0,0 l/m 7,6 km/h (2 Bft) O 90 -5,3 C -1,3 C
06.03.2012 00:12 1,0 C 62 % 1025,8 hPa 0,0 l/m 5,4 km/h (1 Bft) O 90 -5,4 C -0,6 C
06.03.2012 00:17 1,0 C 62 % 1025,8 hPa 0,0 l/m 4,3 km/h (1 Bft) O-SO 112 -5,4 C 1,0 C
06.03.2012 00:22 0,9 C 62 % 1026,0 hPa 0,0 l/m 10,8 km/h (2 Bft) O 90 -5,5 C -2,4 C
06.03.2012 00:27 0,9 C 62 % 1025,9 hPa 0,0 l/m 4,0 km/h (1 Bft) O-SO 112 -5,5 C 0,9 C
06.03.2012 00:32 0,8 C 63 % 1026,0 hPa 0,0 l/m 6,5 km/h (2 Bft) O-NO 67 -5,4 C -1,3 C
06.03.2012 00:37 0,8 C 63 % 1026,0 hPa 0,0 l/m 9,4 km/h (2 Bft) O-NO 67 -5,4 C -2,2 C
06.03.2012 00:42 0,7 C 63 % 1026,1 hPa 0,0 l/m 14,4 km/h (3 Bft) O 90 -5,5 C -3,4 C
06.03.2012 00:47 0,7 C 63 % 1026,1 hPa 0,0 l/m 10,8 km/h (2 Bft) SO 135 -5,5 C -2,7 C
06.03.2012 00:52 0,6 C 63 % 1026,0 hPa 0,0 l/m 5,0 km/h (1 Bft) O 90 -5,6 C -0,9 C
06.03.2012 00:57 0,6 C 63 % 1026,1 hPa 0,0 l/m 11,2 km/h (2 Bft) O-SO 112 -5,6 C -2,9 C
06.03.2012 01:02 0,5 C 64 % 1026,2 hPa 0,0 l/m 11,9 km/h (2 Bft) O 90 -5,5 C -3,2 C
06.03.2012 01:07 0,4 C 64 % 1026,3 hPa 0,0 l/m 9,0 km/h (2 Bft) SO 135 -5,6 C -2,6 C
06.03.2012 01:12 0,4 C 64 % 1026,2 hPa 0,0 l/m 11,2 km/h (2 Bft) O 90 -5,6 C -3,1 C
06.03.2012 01:17 0,4 C 64 % 1026,4 hPa 0,0 l/m 6,1 km/h (2 Bft) O-SO 112 -5,6 C -1,6 C
06.03.2012 01:22 0,3 C 64 % 1026,5 hPa 0,0 l/m 6,1 km/h (2 Bft) O-SO 112 -5,7 C -1,7 C
06.03.2012 01:27 0,3 C 65 % 1026,3 hPa 0,0 l/m 16,9 km/h (3 Bft) O 90 -5,5 C -4,4 C
06.03.2012 01:32 0,2 C 65 % 1026,4 hPa 0,0 l/m 7,2 km/h (2 Bft) O 90 -5,6 C -2,2 C
06.03.2012 01:37 0,1 C 65 % 1026,4 hPa 0,0 l/m 8,6 km/h (2 Bft) O-SO 112 -5,7 C -2,8 C
06.03.2012 01:42 0,1 C 65 % 1026,4 hPa 0,0 l/m 13,0 km/h (3 Bft) O-SO 112 -5,7 C -3,9 C
06.03.2012 01:47 0,0 C 66 % 1026,3 hPa 0,0 l/m 7,6 km/h (2 Bft) O-SO 112 -5,6 C -2,6 C
06.03.2012 01:52 -0,1 C 66 % 1026,3 hPa 0,0 l/m 7,2 km/h (2 Bft) SO 135 -5,7 C -2,6 C
06.03.2012 01:57 -0,1 C 66 % 1026,5 hPa 0,0 l/m 12,2 km/h (2 Bft) O-NO 67 -5,7 C -4,0 C
06.03.2012 02:02 -0,1 C 66 % 1026,4 hPa 0,0 l/m 10,1 km/h (2 Bft) O-SO 112 -5,7 C -3,5 C
06.03.2012 02:07 -0,2 C 67 % 1026,4 hPa 0,0 l/m 8,3 km/h (2 Bft) O-SO 112 -5,6 C -3,1 C
06.03.2012 02:12 -0,2 C 67 % 1026,5 hPa 0,0 l/m 6,8 km/h (2 Bft) O 90 -5,6 C -2,6 C
06.03.2012 02:17 -0,4 C 67 % 1026,7 hPa 0,0 l/m 11,2 km/h (2 Bft) O-NO 67 -5,8 C -4,1 C
06.03.2012 02:22 -0,4 C 67 % 1026,7 hPa 0,0 l/m 8,6 km/h (2 Bft) O 90 -5,8 C -3,4 C
06.03.2012 02:27 -0,5 C 68 % 1026,6 hPa 0,0 l/m 10,8 km/h (2 Bft) O 90 -5,7 C -4,1 C
06.03.2012 02:32 -0,5 C 68 % 1026,7 hPa 0,0 l/m 9,7 km/h (2 Bft) O 90 -5,7 C -3,8 C
06.03.2012 02:37 -0,6 C 68 % 1026,8 hPa 0,0 l/m 6,1 km/h (2 Bft) O-NO 67 -5,8 C -2,8 C
06.03.2012 02:42 -0,5 C 68 % 1026,8 hPa 0,0 l/m 7,9 km/h (2 Bft) O-NO 67 -5,7 C -3,3 C
06.03.2012 02:47 -0,5 C 68 % 1026,9 hPa 0,0 l/m 4,0 km/h (1 Bft) O-NO 67 -5,7 C -0,5 C
06.03.2012 02:52 -0,5 C 68 % 1026,9 hPa 0,0 l/m 9,0 km/h (2 Bft) O-NO 67 -5,7 C -3,6 C
06.03.2012 02:57 -0,6 C 68 % 1026,8 hPa 0,0 l/m 14,8 km/h (3 Bft) O 90 -5,8 C -5,1 C
06.03.2012 03:02 -0,6 C 68 % 1026,9 hPa 0,0 l/m 9,7 km/h (2 Bft) O 90 -5,8 C -3,9 C
06.03.2012 03:07 -0,6 C 68 % 1026,9 hPa 0,0 l/m 13,7 km/h (3 Bft) O-NO 67 -5,8 C -4,9 C
06.03.2012 03:12 -0,7 C 68 % 1027,0 hPa 0,0 l/m 8,6 km/h (2 Bft) O-NO 67 -5,9 C -3,7 C
06.03.2012 03:17 -0,7 C 68 % 1026,9 hPa 0,0 l/m 6,5 km/h (2 Bft) O 90 -5,9 C -3,0 C
06.03.2012 03:22 -0,7 C 68 % 1027,0 hPa 0,0 l/m 6,5 km/h (2 Bft) O 90 -5,9 C -3,0 C
06.03.2012 03:27 -0,8 C 68 % 1027,0 hPa 0,0 l/m 1,8 km/h (1 Bft) O 90 -5,9 C -0,8 C
06.03.2012 03:32 -0,8 C 68 % 1027,1 hPa 0,0 l/m 2,5 km/h (1 Bft) O-SO 112 -5,9 C -0,8 C
06.03.2012 03:37 -0,8 C 68 % 1027,2 hPa 0,0 l/m 6,1 km/h (2 Bft) O 90 -5,9 C -3,0 C
06.03.2012 03:42 -0,9 C 69 % 1027,1 hPa 0,0 l/m 2,5 km/h (1 Bft) O 90 -5,9 C -0,9 C
06.03.2012 03:47 -0,9 C 69 % 1026,9 hPa 0,0 l/m 6,1 km/h (2 Bft) O-SO 112 -5,9 C -3,1 C
06.03.2012 03:52 -0,9 C 69 % 1027,1 hPa 0,0 l/m 2,5 km/h (1 Bft) O-SO 112 -5,9 C -0,9 C
06.03.2012 03:57 -0,9 C 69 % 1027,1 hPa 0,0 l/m 3,6 km/h (1 Bft) O 90 -5,9 C -0,9 C
06.03.2012 04:02 -0,9 C 69 % 1027,2 hPa 0,0 l/m 2,5 km/h (1 Bft) O-SO 112 -5,9 C -0,9 C
06.03.2012 04:07 -0,9 C 69 % 1027,2 hPa 0,0 l/m 7,2 km/h (2 Bft) O 90 -5,9 C -3,5 C
06.03.2012 04:12 -0,9 C 69 % 1027,2 hPa 0,0 l/m 5,0 km/h (1 Bft) O-SO 112 -5,9 C -2,6 C
06.03.2012 04:17 -0,9 C 69 % 1027,1 hPa 0,0 l/m 5,4 km/h (1 Bft) O-SO 112 -5,9 C -2,8 C
06.03.2012 04:22 -0,9 C 69 % 1027,2 hPa 0,0 l/m 4,3 km/h (1 Bft) O-SO 112 -5,9 C -0,9 C
06.03.2012 04:27 -0,9 C 69 % 1027,3 hPa 0,0 l/m 2,5 km/h (1 Bft) O-SO 112 -5,9 C -0,9 C
06.03.2012 04:32 -1,0 C 69 % 1027,3 hPa 0,0 l/m 3,6 km/h (1 Bft) O-SO 112 -5,9 C -1,0 C
06.03.2012 04:37 -1,1 C 69 % 1027,3 hPa 0,0 l/m 5,8 km/h (2 Bft) O-SO 112 -6,0 C -3,2 C
06.03.2012 04:42 -1,1 C 69 % 1027,4 hPa 0,0 l/m 2,5 km/h (1 Bft) O-SO 112 -6,0 C -1,1 C
06.03.2012 04:47 -1,1 C 69 % 1027,3 hPa 0,0 l/m 3,2 km/h (1 Bft) O-SO 112 -6,0 C -1,1 C
06.03.2012 04:52 -1,1 C 69 % 1027,3 hPa 0,0 l/m 3,6 km/h (1 Bft) O-SO 112 -6,0 C -1,1 C
06.03.2012 04:57 -1,1 C 69 % 1027,2 hPa 0,0 l/m 5,4 km/h (1 Bft) O-SO 112 -6,0 C -3,0 C
06.03.2012 05:02 -1,1 C 69 % 1027,3 hPa 0,0 l/m 1,8 km/h (1 Bft) O-SO 112 -6,0 C -1,1 C
06.03.2012 05:07 -1,1 C 69 % 1027,4 hPa 0,0 l/m 5,0 km/h (1 Bft) O-SO 112 -6,0 C -2,8 C
06.03.2012 05:12 -1,2 C 69 % 1027,4 hPa 0,0 l/m 2,5 km/h (1 Bft) O 90 -6,1 C -1,2 C
06.03.2012 05:17 -1,2 C 69 % 1027,4 hPa 0,0 l/m 4,0 km/h (1 Bft) O 90 -6,1 C -1,2 C
06.03.2012 05:22 -1,3 C 70 % 1027,4 hPa 0,0 l/m 4,3 km/h (1 Bft) O 90 -6,0 C -1,3 C
06.03.2012 05:27 -1,4 C 70 % 1027,5 hPa 0,0 l/m 4,0 km/h (1 Bft) O-SO 112 -6,1 C -1,4 C
06.03.2012 05:32 -1,4 C 70 % 1027,5 hPa 0,0 l/m 6,8 km/h (2 Bft) O 90 -6,1 C -4,0 C
06.03.2012 05:37 -1,5 C 70 % 1027,6 hPa 0,0 l/m 6,8 km/h (2 Bft) O 90 -6,2 C -4,1 C
06.03.2012 05:42 -1,5 C 70 % 1027,6 hPa 0,0 l/m 2,2 km/h (1 Bft) O-SO 112 -6,2 C -1,5 C
06.03.2012 05:47 -1,5 C 70 % 1027,8 hPa 0,0 l/m 2,9 km/h (1 Bft) O-SO 112 -6,2 C -1,5 C
06.03.2012 05:52 -1,5 C 70 % 1027,8 hPa 0,0 l/m 5,0 km/h (1 Bft) O-SO 112 -6,2 C -3,3 C
06.03.2012 05:57 -1,5 C 70 % 1027,6 hPa 0,0 l/m 6,8 km/h (2 Bft) O-SO 112 -6,2 C -4,1 C
06.03.2012 06:02 -1,5 C 70 % 1027,6 hPa 0,0 l/m 5,8 km/h (2 Bft) O-SO 112 -6,2 C -3,7 C
06.03.2012 06:07 -1,5 C 70 % 1027,7 hPa 0,0 l/m 7,6 km/h (2 Bft) O-SO 112 -6,2 C -4,4 C
06.03.2012 06:12 -1,5 C 70 % 1027,8 hPa 0,0 l/m 10,8 km/h (2 Bft) O-SO 112 -6,2 C -5,3 C
06.03.2012 06:17 -1,6 C 70 % 1027,6 hPa 0,0 l/m 5,8 km/h (2 Bft) O 90 -6,3 C -3,8 C
06.03.2012 06:22 -1,6 C 70 % 1027,7 hPa 0,0 l/m 4,0 km/h (1 Bft) O 90 -6,3 C -1,6 C
06.03.2012 06:27 -1,6 C 71 % 1027,8 hPa 0,0 l/m 8,6 km/h (2 Bft) O-SO 112 -6,2 C -4,8 C
06.03.2012 06:32 -1,6 C 71 % 1027,8 hPa 0,0 l/m 10,8 km/h (2 Bft) O 90 -6,2 C -5,4 C
06.03.2012 06:37 -1,6 C 71 % 1028,1 hPa 0,0 l/m 5,4 km/h (1 Bft) O-SO 112 -6,2 C -3,6 C
06.03.2012 06:42 -1,6 C 71 % 1028,3 hPa 0,0 l/m 5,0 km/h (1 Bft) O 90 -6,2 C -3,4 C
06.03.2012 06:47 -1,6 C 71 % 1028,4 hPa 0,0 l/m 11,2 km/h (2 Bft) SO 135 -6,2 C -5,5 C
06.03.2012 06:52 -1,7 C 71 % 1028,4 hPa 0,0 l/m 9,4 km/h (2 Bft) O 90 -6,2 C -5,2 C
06.03.2012 06:57 -1,6 C 71 % 1028,2 hPa 0,0 l/m 7,9 km/h (2 Bft) O-NO 67 -6,2 C -4,6 C
06.03.2012 07:02 -1,6 C 71 % 1028,4 hPa 0,0 l/m 7,2 km/h (2 Bft) O 90 -6,2 C -4,3 C
06.03.2012 07:07 -1,7 C 71 % 1028,3 hPa 0,0 l/m 3,6 km/h (1 Bft) O 90 -6,2 C -1,7 C
06.03.2012 07:12 -1,7 C 71 % 1028,6 hPa 0,0 l/m 4,7 km/h (1 Bft) S-SO 157 -6,2 C -3,4 C
06.03.2012 07:17 -1,7 C 72 % 1028,5 hPa 0,0 l/m 10,4 km/h (2 Bft) O-SO 112 -6,1 C -5,5 C
06.03.2012 07:22 -1,7 C 72 % 1028,7 hPa 0,0 l/m 2,5 km/h (1 Bft) SO 135 -6,1 C -1,7 C
06.03.2012 07:27 -1,7 C 72 % 1028,8 hPa 0,0 l/m 18,4 km/h (3 Bft) SO 135 -6,1 C -7,1 C
06.03.2012 07:32 -1,7 C 72 % 1028,8 hPa 0,0 l/m 16,9 km/h (3 Bft) O 90 -6,1 C -6,9 C
06.03.2012 07:37 -1,7 C 72 % 1029,0 hPa 0,0 l/m 10,8 km/h (2 Bft) O-SO 112 -6,1 C -5,6 C
06.03.2012 07:42 -1,7 C 72 % 1028,9 hPa 0,0 l/m 6,1 km/h (2 Bft) O 90 -6,1 C -4,0 C
06.03.2012 07:47 -1,7 C 72 % 1029,1 hPa 0,0 l/m 10,8 km/h (2 Bft) O 90 -6,1 C -5,6 C
06.03.2012 07:52 -1,7 C 72 % 1029,1 hPa 0,0 l/m 11,2 km/h (2 Bft) O 90 -6,1 C -5,7 C
06.03.2012 07:57 -1,6 C 72 % 1029,3 hPa 0,0 l/m 16,9 km/h (3 Bft) O-SO 112 -6,0 C -6,7 C
06.03.2012 08:02 -1,6 C 72 % 1029,2 hPa 0,0 l/m 7,6 km/h (2 Bft) O-SO 112 -6,0 C -4,5 C
06.03.2012 08:07 -1,6 C 72 % 1029,1 hPa 0,0 l/m 10,8 km/h (2 Bft) O 90 -6,0 C -5,4 C
06.03.2012 08:12 -1,5 C 72 % 1029,2 hPa 0,0 l/m 13,7 km/h (3 Bft) SO 135 -5,9 C -6,0 C
06.03.2012 08:17 -1,5 C 72 % 1029,3 hPa 0,0 l/m 15,1 km/h (3 Bft) O 90 -5,9 C -6,3 C
06.03.2012 08:22 -1,4 C 72 % 1029,5 hPa 0,0 l/m 10,1 km/h (2 Bft) S-SO 157 -5,8 C -5,0 C
06.03.2012 08:27 -1,4 C 72 % 1029,4 hPa 0,0 l/m 8,6 km/h (2 Bft) O 90 -5,8 C -4,6 C
06.03.2012 08:32 -1,3 C 72 % 1029,5 hPa 0,0 l/m 9,7 km/h (2 Bft) O-SO 112 -5,7 C -4,8 C
06.03.2012 08:37 -1,2 C 72 % 1029,6 hPa 0,0 l/m 4,7 km/h (1 Bft) SO 135 -5,6 C -2,8 C
06.03.2012 08:42 -1,1 C 72 % 1029,6 hPa 0,0 l/m 12,2 km/h (2 Bft) O 90 -5,5 C -5,2 C
06.03.2012 08:47 -1,0 C 72 % 1029,7 hPa 0,0 l/m 6,8 km/h (2 Bft) O-SO 112 -5,4 C -3,5 C
06.03.2012 08:52 -0,9 C 72 % 1029,8 hPa 0,0 l/m 8,3 km/h (2 Bft) O 90 -5,3 C -3,9 C
06.03.2012 08:57 -0,8 C 72 % 1029,8 hPa 0,0 l/m 5,4 km/h (1 Bft) NO 45 -5,2 C -2,7 C
06.03.2012 09:02 -0,7 C 71 % 1029,8 hPa 0,0 l/m 5,8 km/h (2 Bft) SO 135 -5,3 C -2,7 C
06.03.2012 09:07 -0,5 C 71 % 1030,0 hPa 0,0 l/m 7,2 km/h (2 Bft) SO 135 -5,1 C -3,1 C
06.03.2012 09:12 -0,4 C 71 % 1030,0 hPa 0,0 l/m 9,7 km/h (2 Bft) O 90 -5,0 C -3,7 C
06.03.2012 09:17 -0,2 C 71 % 1030,1 hPa 0,0 l/m 4,7 km/h (1 Bft) O-NO 67 -4,8 C -1,7 C
06.03.2012 09:22 -0,2 C 71 % 1030,2 hPa 0,0 l/m 9,7 km/h (2 Bft) O-SO 112 -4,8 C -3,5 C
06.03.2012 09:27 -0,1 C 71 % 1030,3 hPa 0,0 l/m 5,8 km/h (2 Bft) O 90 -4,7 C -2,1 C
06.03.2012 09:32 0,1 C 70 % 1030,3 hPa 0,0 l/m 7,2 km/h (2 Bft) O-SO 112 -4,7 C -2,4 C
06.03.2012 09:37 0,2 C 70 % 1030,2 hPa 0,0 l/m 6,1 km/h (2 Bft) O 90 -4,6 C -1,8 C
06.03.2012 09:42 0,2 C 70 % 1030,2 hPa 0,0 l/m 14,4 km/h (3 Bft) SO 135 -4,6 C -4,1 C
06.03.2012 09:47 0,4 C 70 % 1030,5 hPa 0,0 l/m 7,2 km/h (2 Bft) O 90 -4,4 C -2,0 C
06.03.2012 09:52 0,5 C 70 % 1030,5 hPa 0,0 l/m 5,0 km/h (1 Bft) SO 135 -4,3 C -1,0 C
06.03.2012 09:57 0,6 C 69 % 1030,3 hPa 0,0 l/m 19,8 km/h (3 Bft) O 90 -4,4 C -4,5 C
06.03.2012 10:02 0,7 C 69 % 1030,4 hPa 0,0 l/m 3,6 km/h (1 Bft) O-SO 112 -4,3 C 0,7 C
06.03.2012 10:07 0,9 C 69 % 1030,5 hPa 0,0 l/m 3,2 km/h (1 Bft) O-SO 112 -4,1 C 0,9 C
06.03.2012 10:12 1,1 C 68 % 1030,6 hPa 0,0 l/m 13,0 km/h (3 Bft) O-SO 112 -4,1 C -2,7 C
06.03.2012 10:17 1,2 C 68 % 1030,3 hPa 0,0 l/m 1,4 km/h (1 Bft) O-NO 67 -4,0 C 1,2 C
06.03.2012 10:22 1,3 C 67 % 1030,4 hPa 0,0 l/m 15,8 km/h (3 Bft) SO 135 -4,1 C -3,0 C
06.03.2012 10:27 1,3 C 66 % 1030,5 hPa 0,0 l/m 5,8 km/h (2 Bft) O-SO 112 -4,3 C -0,5 C
06.03.2012 10:32 1,6 C 66 % 1030,6 hPa 0,0 l/m 5,4 km/h (1 Bft) O-SO 112 -4,1 C 0,1 C
06.03.2012 10:37 1,6 C 65 % 1030,8 hPa 0,0 l/m 11,9 km/h (2 Bft) O-SO 112 -4,3 C -1,8 C
06.03.2012 10:42 1,8 C 65 % 1030,8 hPa 0,0 l/m 8,3 km/h (2 Bft) S-SO 157 -4,1 C -0,7 C
06.03.2012 10:47 1,9 C 64 % 1030,8 hPa 0,0 l/m 7,2 km/h (2 Bft) O-SO 112 -4,2 C -0,3 C
06.03.2012 10:52 2,1 C 63 % 1030,8 hPa 0,0 l/m 16,6 km/h (3 Bft) O-SO 112 -4,2 C -2,1 C
06.03.2012 10:57 2,1 C 63 % 1030,8 hPa 0,0 l/m 6,5 km/h (2 Bft) O-SO 112 -4,2 C 0,2 C
06.03.2012 11:02 2,2 C 62 % 1030,8 hPa 0,0 l/m 4,7 km/h (1 Bft) O-NO 67 -4,3 C 1,0 C
06.03.2012 11:07 2,3 C 62 % 1030,8 hPa 0,0 l/m 6,8 km/h (2 Bft) O-SO 112 -4,2 C 0,3 C
06.03.2012 11:12 2,4 C 61 % 1030,7 hPa 0,0 l/m 5,0 km/h (1 Bft) O 90 -4,3 C 1,1 C
06.03.2012 11:17 2,5 C 62 % 1030,7 hPa 0,0 l/m 7,2 km/h (2 Bft) O-SO 112 -4,0 C 0,4 C
06.03.2012 11:22 2,7 C 61 % 1030,8 hPa 0,0 l/m 4,3 km/h (1 Bft) SO 135 -4,1 C 2,7 C
06.03.2012 11:27 2,9 C 59 % 1030,7 hPa 0,0 l/m 15,1 km/h (3 Bft) S-SO 157 -4,3 C -0,9 C
06.03.2012 11:32 2,9 C 58 % 1030,8 hPa 0,0 l/m 4,3 km/h (1 Bft) SO 135 -4,5 C 2,9 C
06.03.2012 11:37 3,1 C 57 % 1030,6 hPa 0,0 l/m 6,8 km/h (2 Bft) S-SO 157 -4,6 C 1,3 C
06.03.2012 11:42 3,2 C 58 % 1030,7 hPa 0,0 l/m 10,1 km/h (2 Bft) O-SO 112 -4,3 C 0,5 C
06.03.2012 11:47 3,3 C 58 % 1030,6 hPa 0,0 l/m 7,2 km/h (2 Bft) SO 135 -4,2 C 1,4 C
06.03.2012 11:52 3,3 C 58 % 1030,6 hPa 0,0 l/m 12,2 km/h (2 Bft) O-SO 112 -4,2 C 0,2 C
06.03.2012 11:57 3,4 C 58 % 1030,5 hPa 0,0 l/m 16,2 km/h (3 Bft) O 90 -4,1 C -0,4 C
06.03.2012 12:02 3,4 C 58 % 1030,6 hPa 0,0 l/m 8,3 km/h (2 Bft) O-SO 112 -4,1 C 1,2 C
06.03.2012 12:07 3,5 C 58 % 1030,5 hPa 0,0 l/m 12,2 km/h (2 Bft) SO 135 -4,0 C 0,4 C
06.03.2012 12:12 3,6 C 57 % 1030,5 hPa 0,0 l/m 8,3 km/h (2 Bft) O-NO 67 -4,1 C 1,4 C
06.03.2012 12:17 3,6 C 57 % 1030,7 hPa 0,0 l/m 10,8 km/h (2 Bft) S-SO 157 -4,1 C 0,8 C
06.03.2012 12:22 3,6 C 57 % 1030,6 hPa 0,0 l/m 8,6 km/h (2 Bft) O 90 -4,1 C 1,3 C
06.03.2012 12:27 3,8 C 57 % 1030,5 hPa 0,0 l/m 10,4 km/h (2 Bft) O-SO 112 -3,9 C 1,1 C
06.03.2012 12:32 3,9 C 57 % 1030,5 hPa 0,0 l/m 6,1 km/h (2 Bft) SO 135 -3,8 C 2,4 C
06.03.2012 12:37 4,1 C 56 % 1030,4 hPa 0,0 l/m 11,5 km/h (2 Bft) O-NO 67 -3,9 C 1,3 C
06.03.2012 12:42 4,2 C 55 % 1030,5 hPa 0,0 l/m 8,6 km/h (2 Bft) O 90 -4,0 C 2,0 C
06.03.2012 12:47 4,2 C 55 % 1030,2 hPa 0,0 l/m 9,0 km/h (2 Bft) O-SO 112 -4,0 C 1,9 C
06.03.2012 12:52 4,3 C 55 % 1030,3 hPa 0,0 l/m 3,6 km/h (1 Bft) O 90 -3,9 C 4,3 C
06.03.2012 12:57 4,4 C 55 % 1030,4 hPa 0,0 l/m 9,7 km/h (2 Bft) O-SO 112 -3,8 C 2,0 C
06.03.2012 13:02 4,5 C 55 % 1030,4 hPa 0,0 l/m 8,6 km/h (2 Bft) O 90 -3,7 C 2,4 C
06.03.2012 13:07 4,6 C 54 % 1030,4 hPa 0,0 l/m 10,1 km/h (2 Bft) O 90 -3,9 C 2,2 C
06.03.2012 13:12 4,6 C 54 % 1030,5 hPa 0,0 l/m 6,1 km/h (2 Bft) O-SO 112 -3,9 C 3,2 C
06.03.2012 13:17 4,6 C 53 % 1030,5 hPa 0,0 l/m 7,2 km/h (2 Bft) O 90 -4,1 C 2,9 C
06.03.2012 13:22 4,8 C 53 % 1030,4 hPa 0,0 l/m 3,2 km/h (1 Bft) O-SO 112 -4,0 C 4,8 C
06.03.2012 13:27 4,9 C 53 % 1030,3 hPa 0,0 l/m 11,2 km/h (2 Bft) O 90 -3,9 C 2,3 C
06.03.2012 13:32 4,9 C 52 % 1030,4 hPa 0,0 l/m 6,5 km/h (2 Bft) SO 135 -4,1 C 3,4 C
06.03.2012 13:37 4,9 C 51 % 1030,5 hPa 0,0 l/m 13,0 km/h (3 Bft) O-SO 112 -4,4 C 2,0 C
06.03.2012 13:42 4,9 C 52 % 1030,2 hPa 0,0 l/m 3,6 km/h (1 Bft) SO 135 -4,1 C 4,9 C
06.03.2012 13:47 5,0 C 50 % 1030,3 hPa 0,0 l/m 8,3 km/h (2 Bft) O 90 -4,5 C 3,1 C
06.03.2012 13:52 5,0 C 51 % 1030,5 hPa 0,0 l/m 4,0 km/h (1 Bft) SO 135 -4,3 C 5,0 C
06.03.2012 13:57 5,2 C 51 % 1030,4 hPa 0,0 l/m 12,2 km/h (2 Bft) O-SO 112 -4,1 C 2,5 C
06.03.2012 14:02 5,3 C 51 % 1030,5 hPa 0,0 l/m 5,8 km/h (2 Bft) O-SO 112 -4,0 C 4,1 C
06.03.2012 14:07 5,3 C 51 % 1030,2 hPa 0,0 l/m 6,1 km/h (2 Bft) SO 135 -4,0 C 4,0 C
06.03.2012 14:12 5,4 C 50 % 1030,3 hPa 0,0 l/m 10,1 km/h (2 Bft) O 90 -4,2 C 3,1 C
06.03.2012 14:17 5,4 C 50 % 1030,3 hPa 0,0 l/m 3,2 km/h (1 Bft) SO 135 -4,2 C 5,4 C
06.03.2012 14:22 5,5 C 50 % 1030,3 hPa 0,0 l/m 4,7 km/h (1 Bft) O 90 -4,1 C 4,8 C
06.03.2012 14:27 5,6 C 50 % 1030,3 hPa 0,0 l/m 14,4 km/h (3 Bft) SO 135 -4,0 C 2,6 C
06.03.2012 14:32 5,6 C 50 % 1030,2 hPa 0,0 l/m 10,4 km/h (2 Bft) O-SO 112 -4,0 C 3,3 C
06.03.2012 14:37 5,6 C 50 % 1030,2 hPa 0,0 l/m 4,0 km/h (1 Bft) S 180 -4,0 C 5,6 C
06.03.2012 14:42 5,6 C 50 % 1030,2 hPa 0,0 l/m 9,4 km/h (2 Bft) S 180 -4,0 C 3,5 C
06.03.2012 14:47 5,6 C 50 % 1030,1 hPa 0,0 l/m 4,7 km/h (1 Bft) O 90 -4,0 C 4,9 C
06.03.2012 14:52 5,6 C 50 % 1030,2 hPa 0,0 l/m 4,7 km/h (1 Bft) SO 135 -4,0 C 4,9 C
06.03.2012 14:57 5,6 C 50 % 1030,2 hPa 0,0 l/m 6,1 km/h (2 Bft) NO 45 -4,0 C 4,4 C
06.03.2012 15:02 5,6 C 50 % 1030,2 hPa 0,0 l/m 6,5 km/h (2 Bft) O-SO 112 -4,0 C 4,3 C
06.03.2012 15:07 5,6 C 49 % 1030,2 hPa 0,0 l/m 7,6 km/h (2 Bft) O 90 -4,3 C 3,9 C
06.03.2012 15:12 5,6 C 50 % 1030,2 hPa 0,0 l/m 5,0 km/h (1 Bft) SO 135 -4,0 C 4,8 C
06.03.2012 15:17 5,6 C 50 % 1030,3 hPa 0,0 l/m 3,2 km/h (1 Bft) O 90 -4,0 C 5,6 C
06.03.2012 15:22 5,6 C 50 % 1030,2 hPa 0,0 l/m 10,1 km/h (2 Bft) O-SO 112 -4,0 C 3,4 C
06.03.2012 15:27 5,6 C 50 % 1030,3 hPa 0,0 l/m 6,1 km/h (2 Bft) O 90 -4,0 C 4,4 C
06.03.2012 15:32 5,6 C 50 % 1030,2 hPa 0,0 l/m 3,2 km/h (1 Bft) O-SO 112 -4,0 C 5,6 C
06.03.2012 15:37 5,6 C 49 % 1030,4 hPa 0,0 l/m 5,0 km/h (1 Bft) SO 135 -4,3 C 4,8 C
06.03.2012 15:42 5,6 C 49 % 1030,2 hPa 0,0 l/m 5,8 km/h (2 Bft) O 90 -4,3 C 4,5 C
06.03.2012 15:47 5,6 C 49 % 1030,2 hPa 0,0 l/m 8,6 km/h (2 Bft) O 90 -4,3 C 3,7 C
06.03.2012 15:52 5,5 C 49 % 1030,4 hPa 0,0 l/m 11,2 km/h (2 Bft) O-SO 112 -4,3 C 3,0 C
06.03.2012 15:57 5,4 C 49 % 1030,4 hPa 0,0 l/m 8,6 km/h (2 Bft) O 90 -4,4 C 3,5 C
06.03.2012 16:02 5,4 C 49 % 1030,4 hPa 0,0 l/m 4,0 km/h (1 Bft) SO 135 -4,4 C 5,4 C
06.03.2012 16:07 5,5 C 49 % 1030,4 hPa 0,0 l/m 12,6 km/h (3 Bft) O 90 -4,3 C 2,8 C
06.03.2012 16:12 5,4 C 49 % 1030,2 hPa 0,0 l/m 5,8 km/h (2 Bft) O-SO 112 -4,4 C 4,2 C
06.03.2012 16:17 5,3 C 49 % 1030,3 hPa 0,0 l/m 9,7 km/h (2 Bft) O 90 -4,5 C 3,1 C
06.03.2012 16:22 5,2 C 49 % 1030,5 hPa 0,0 l/m 5,8 km/h (2 Bft) O 90 -4,6 C 4,0 C
06.03.2012 16:27 5,1 C 49 % 1030,5 hPa 0,0 l/m 8,6 km/h (2 Bft) O 90 -4,7 C 3,1 C
06.03.2012 16:32 4,9 C 50 % 1030,2 hPa 0,0 l/m 4,7 km/h (1 Bft) O 90 -4,6 C 4,1 C
06.03.2012 16:37 4,9 C 50 % 1030,2 hPa 0,0 l/m 0,0 km/h (0 Bft) SO 135 -4,6 C 4,9 C
06.03.2012 16:42 4,8 C 50 % 1030,2 hPa 0,0 l/m 6,1 km/h (2 Bft) O 90 -4,7 C 3,5 C
06.03.2012 16:47 4,8 C 50 % 1030,2 hPa 0,0 l/m 5,0 km/h (1 Bft) O-SO 112 -4,7 C 3,9 C
06.03.2012 16:52 4,8 C 50 % 1030,2 hPa 0,0 l/m 5,8 km/h (2 Bft) SO 135 -4,7 C 3,6 C
06.03.2012 16:57 4,6 C 50 % 1030,1 hPa 0,0 l/m 3,2 km/h (1 Bft) O 90 -4,9 C 4,6 C
06.03.2012 17:02 4,6 C 50 % 1030,2 hPa 0,0 l/m 1,8 km/h (1 Bft) O-SO 112 -4,9 C 4,6 C
06.03.2012 17:07 4,5 C 51 % 1030,2 hPa 0,0 l/m 4,0 km/h (1 Bft) O-SO 112 -4,7 C 4,5 C
06.03.2012 17:12 4,4 C 51 % 1030,1 hPa 0,0 l/m 8,3 km/h (2 Bft) O-SO 112 -4,8 C 2,4 C
06.03.2012 17:17 4,4 C 51 % 1030,2 hPa 0,0 l/m 7,9 km/h (2 Bft) O 90 -4,8 C 2,5 C
06.03.2012 17:22 4,4 C 51 % 1030,2 hPa 0,0 l/m 3,2 km/h (1 Bft) SO 135 -4,8 C 4,4 C
06.03.2012 17:27 4,3 C 51 % 1030,3 hPa 0,0 l/m 2,9 km/h (1 Bft) O 90 -4,9 C 4,3 C
06.03.2012 17:32 4,3 C 51 % 1030,3 hPa 0,0 l/m 4,7 km/h (1 Bft) O-SO 112 -4,9 C 3,4 C
06.03.2012 17:37 4,2 C 51 % 1030,3 hPa 0,0 l/m 9,4 km/h (2 Bft) O-SO 112 -5,0 C 1,8 C
06.03.2012 17:42 4,1 C 51 % 1030,5 hPa 0,0 l/m 4,0 km/h (1 Bft) O-NO 67 -5,1 C 4,1 C
06.03.2012 17:47 4,1 C 51 % 1030,5 hPa 0,0 l/m 2,2 km/h (1 Bft) O-SO 112 -5,1 C 4,1 C
06.03.2012 17:52 4,1 C 51 % 1030,6 hPa 0,0 l/m 4,7 km/h (1 Bft) O 90 -5,1 C 3,2 C
06.03.2012 17:57 3,9 C 52 % 1030,6 hPa 0,0 l/m 4,7 km/h (1 Bft) SO 135 -5,0 C 3,0 C
06.03.2012 18:02 3,9 C 52 % 1030,8 hPa 0,0 l/m 8,3 km/h (2 Bft) SO 135 -5,0 C 1,8 C
06.03.2012 18:07 3,9 C 52 % 1030,7 hPa 0,0 l/m 6,1 km/h (2 Bft) O-NO 67 -5,0 C 2,4 C
06.03.2012 18:12 3,8 C 52 % 1030,6 hPa 0,0 l/m 5,4 km/h (1 Bft) O 90 -5,1 C 2,6 C
06.03.2012 18:17 3,8 C 52 % 1030,5 hPa 0,0 l/m 7,2 km/h (2 Bft) O-SO 112 -5,1 C 2,0 C
06.03.2012 18:22 3,6 C 53 % 1030,8 hPa 0,0 l/m 8,3 km/h (2 Bft) O 90 -5,1 C 1,4 C
06.03.2012 18:27 3,6 C 53 % 1030,6 hPa 0,0 l/m 8,3 km/h (2 Bft) O-SO 112 -5,1 C 1,4 C
06.03.2012 18:32 3,6 C 53 % 1030,6 hPa 0,0 l/m 7,2 km/h (2 Bft) SO 135 -5,1 C 1,7 C
06.03.2012 18:37 3,5 C 53 % 1030,5 hPa 0,0 l/m 4,7 km/h (1 Bft) O 90 -5,2 C 2,5 C
06.03.2012 18:42 3,4 C 53 % 1030,7 hPa 0,0 l/m 7,2 km/h (2 Bft) O 90 -5,3 C 1,5 C
06.03.2012 18:47 3,3 C 54 % 1030,8 hPa 0,0 l/m 4,0 km/h (1 Bft) O-SO 112 -5,1 C 3,3 C
06.03.2012 18:52 3,3 C 54 % 1030,6 hPa 0,0 l/m 4,3 km/h (1 Bft) O 90 -5,1 C 3,3 C
06.03.2012 18:57 3,2 C 55 % 1030,8 hPa 0,0 l/m 5,0 km/h (1 Bft) O-SO 112 -5,0 C 2,0 C
06.03.2012 19:02 3,1 C 55 % 1030,7 hPa 0,0 l/m 6,1 km/h (2 Bft) O-SO 112 -5,0 C 1,5 C
06.03.2012 19:07 3,1 C 55 % 1030,8 hPa 0,0 l/m 5,0 km/h (1 Bft) O 90 -5,0 C 1,9 C
06.03.2012 19:12 2,9 C 56 % 1030,7 hPa 0,0 l/m 7,6 km/h (2 Bft) SO 135 -5,0 C 0,8 C
06.03.2012 19:17 2,9 C 56 % 1030,6 hPa 0,0 l/m 4,7 km/h (1 Bft) O-SO 112 -5,0 C 1,8 C
06.03.2012 19:22 2,9 C 56 % 1030,8 hPa 0,0 l/m 2,9 km/h (1 Bft) O-SO 112 -5,0 C 2,9 C
06.03.2012 19:27 2,8 C 56 % 1030,6 hPa 0,0 l/m 10,8 km/h (2 Bft) O-NO 67 -5,1 C -0,2 C
06.03.2012 19:32 2,8 C 57 % 1030,6 hPa 0,0 l/m 3,6 km/h (1 Bft) O-SO 112 -4,9 C 2,8 C
06.03.2012 19:37 2,8 C 57 % 1030,9 hPa 0,0 l/m 9,0 km/h (2 Bft) O 90 -4,9 C 0,3 C
06.03.2012 19:42 2,7 C 57 % 1030,9 hPa 0,0 l/m 4,0 km/h (1 Bft) O 90 -4,9 C 2,7 C
06.03.2012 19:47 2,6 C 57 % 1030,8 hPa 0,0 l/m 10,1 km/h (2 Bft) O 90 -5,0 C -0,2 C
06.03.2012 19:52 2,6 C 57 % 1030,9 hPa 0,0 l/m 6,5 km/h (2 Bft) O-SO 112 -5,0 C 0,8 C
06.03.2012 19:57 2,5 C 57 % 1030,8 hPa 0,0 l/m 3,2 km/h (1 Bft) O-SO 112 -5,1 C 2,5 C
06.03.2012 20:02 2,5 C 57 % 1030,9 hPa 0,0 l/m 5,8 km/h (2 Bft) O 90 -5,1 C 0,9 C
06.03.2012 20:07 2,4 C 58 % 1031,0 hPa 0,0 l/m 4,3 km/h (1 Bft) O 90 -5,0 C 2,4 C
06.03.2012 20:12 2,4 C 58 % 1031,0 hPa 0,0 l/m 6,5 km/h (2 Bft) O 90 -5,0 C 0,6 C
06.03.2012 20:17 2,3 C 58 % 1031,2 hPa 0,0 l/m 4,0 km/h (1 Bft) O-SO 112 -5,1 C 2,3 C
06.03.2012 20:22 2,3 C 59 % 1031,3 hPa 0,0 l/m 4,7 km/h (1 Bft) O-SO 112 -4,9 C 1,2 C
06.03.2012 20:27 2,3 C 59 % 1031,2 hPa 0,0 l/m 4,7 km/h (1 Bft) O 90 -4,9 C 1,2 C
06.03.2012 20:32 2,2 C 59 % 1031,2 hPa 0,0 l/m 6,1 km/h (2 Bft) SO 135 -5,0 C 0,5 C
06.03.2012 20:37 2,2 C 59 % 1031,1 hPa 0,0 l/m 8,3 km/h (2 Bft) O 90 -5,0 C -0,2 C
06.03.2012 20:42 2,1 C 60 % 1031,1 hPa 0,0 l/m 10,1 km/h (2 Bft) O-NO 67 -4,8 C -0,8 C
06.03.2012 20:47 2,1 C 60 % 1031,0 hPa 0,0 l/m 5,8 km/h (2 Bft) O 90 -4,8 C 0,5 C
06.03.2012 20:52 1,9 C 60 % 1031,0 hPa 0,0 l/m 4,7 km/h (1 Bft) O-SO 112 -5,0 C 0,7 C
06.03.2012 20:57 1,9 C 60 % 1031,0 hPa 0,0 l/m 9,7 km/h (2 Bft) O-SO 112 -5,0 C -1,0 C
06.03.2012 21:02 1,9 C 61 % 1031,2 hPa 0,0 l/m 4,7 km/h (1 Bft) O-SO 112 -4,8 C 0,7 C
06.03.2012 21:07 1,8 C 60 % 1031,2 hPa 0,0 l/m 2,2 km/h (1 Bft) O-NO 67 -5,1 C 1,8 C
06.03.2012 21:12 1,8 C 61 % 1031,2 hPa 0,0 l/m 2,2 km/h (1 Bft) O-SO 112 -4,9 C 1,8 C
06.03.2012 21:17 1,7 C 61 % 1031,3 hPa 0,0 l/m 3,2 km/h (1 Bft) O-SO 112 -5,0 C 1,7 C
06.03.2012 21:22 1,6 C 61 % 1031,3 hPa 0,0 l/m 5,0 km/h (1 Bft) O-SO 112 -5,1 C 0,2 C
06.03.2012 21:27 1,6 C 61 % 1031,4 hPa 0,0 l/m 5,0 km/h (1 Bft) O 90 -5,1 C 0,2 C
06.03.2012 21:32 1,5 C 62 % 1031,3 hPa 0,0 l/m 6,1 km/h (2 Bft) O 90 -5,0 C -0,3 C
06.03.2012 21:37 1,4 C 62 % 1031,3 hPa 0,0 l/m 8,3 km/h (2 Bft) O-SO 112 -5,1 C -1,2 C
06.03.2012 21:42 1,4 C 62 % 1031,3 hPa 0,0 l/m 5,0 km/h (1 Bft) O-SO 112 -5,1 C -0,0 C
06.03.2012 21:47 1,3 C 62 % 1031,4 hPa 0,0 l/m 2,9 km/h (1 Bft) O 90 -5,2 C 1,3 C
06.03.2012 21:52 1,3 C 62 % 1031,3 hPa 0,0 l/m 3,6 km/h (1 Bft) SO 135 -5,2 C 1,3 C
06.03.2012 21:57 1,3 C 62 % 1031,3 hPa 0,0 l/m 3,2 km/h (1 Bft) O 90 -5,2 C 1,3 C
06.03.2012 22:02 1,3 C 62 % 1031,2 hPa 0,0 l/m 3,2 km/h (1 Bft) O-SO 112 -5,2 C 1,3 C
06.03.2012 22:07 1,3 C 62 % 1031,4 hPa 0,0 l/m 3,2 km/h (1 Bft) O-SO 112 -5,2 C 1,3 C
06.03.2012 22:12 1,3 C 63 % 1031,4 hPa 0,0 l/m 1,1 km/h (1 Bft) O-SO 112 -5,0 C 1,3 C
06.03.2012 22:17 1,3 C 63 % 1031,5 hPa 0,0 l/m 3,2 km/h (1 Bft) SO 135 -5,0 C 1,3 C
06.03.2012 22:22 1,2 C 63 % 1031,4 hPa 0,0 l/m 7,2 km/h (2 Bft) SO 135 -5,0 C -1,1 C
06.03.2012 22:27 1,1 C 63 % 1031,3 hPa 0,0 l/m 2,5 km/h (1 Bft) O-SO 112 -5,1 C 1,1 C
06.03.2012 22:32 1,1 C 63 % 1031,0 hPa 0,0 l/m 3,6 km/h (1 Bft) O-SO 112 -5,1 C 1,1 C
06.03.2012 22:37 0,9 C 63 % 1031,0 hPa 0,0 l/m 6,1 km/h (2 Bft) O-SO 112 -5,3 C -1,0 C
06.03.2012 22:42 0,9 C 63 % 1031,0 hPa 0,0 l/m 3,2 km/h (1 Bft) O-SO 112 -5,3 C 0,9 C
06.03.2012 22:47 0,9 C 63 % 1030,9 hPa 0,0 l/m 2,9 km/h (1 Bft) O-SO 112 -5,3 C 0,9 C
06.03.2012 22:52 0,8 C 63 % 1031,0 hPa 0,0 l/m 4,3 km/h (1 Bft) O-SO 112 -5,4 C 0,8 C
06.03.2012 22:57 0,8 C 63 % 1031,0 hPa 0,0 l/m 3,6 km/h (1 Bft) O-SO 112 -5,4 C 0,8 C
06.03.2012 23:02 0,8 C 63 % 1030,9 hPa 0,0 l/m 10,1 km/h (2 Bft) SO 135 -5,4 C -2,4 C
06.03.2012 23:07 0,7 C 63 % 1030,9 hPa 0,0 l/m 4,0 km/h (1 Bft) O 90 -5,5 C 0,7 C
06.03.2012 23:12 0,6 C 63 % 1031,0 hPa 0,0 l/m 3,2 km/h (1 Bft) O-SO 112 -5,6 C 0,6 C
06.03.2012 23:17 0,6 C 63 % 1030,9 hPa 0,0 l/m 2,5 km/h (1 Bft) O 90 -5,6 C 0,6 C
06.03.2012 23:22 0,5 C 63 % 1031,0 hPa 0,0 l/m 2,5 km/h (1 Bft) O-SO 112 -5,7 C 0,5 C
06.03.2012 23:27 0,5 C 63 % 1031,1 hPa 0,0 l/m 5,0 km/h (1 Bft) SO 135 -5,7 C -1,0 C
06.03.2012 23:32 0,5 C 63 % 1031,2 hPa 0,0 l/m 2,5 km/h (1 Bft) SO 135 -5,7 C 0,5 C
06.03.2012 23:37 0,4 C 64 % 1031,0 hPa 0,0 l/m 2,2 km/h (1 Bft) SO 135 -5,6 C 0,4 C
06.03.2012 23:42 0,4 C 64 % 1030,9 hPa 0,0 l/m 2,9 km/h (1 Bft) SO 135 -5,6 C 0,4 C
06.03.2012 23:47 0,3 C 65 % 1031,0 hPa 0,0 l/m 2,5 km/h (1 Bft) SO 135 -5,5 C 0,3 C
06.03.2012 23:52 0,2 C 65 % 1030,8 hPa 0,0 l/m 3,6 km/h (1 Bft) SO 135 -5,6 C 0,2 C
06.03.2012 23:57 0,1 C 65 % 1030,8 hPa 0,0 l/m 2,5 km/h (1 Bft) SO 135 -5,7 C 0,1 C
_ Min-Zeit 06:52 15:07 00:07 - 16:37 - - 06:17 07:27
Minimum _ -1,7 C 49 % 1025,6 hPa - 0,0 km/h (0 Bft) - - -6,3 C -7,1 C
_ Max-Zeit 14:27 07:17 22:17 00:02 09:57 - - 13:02 14:37
Maximum _ 5,6 C 72 % 1031,5 hPa 0,0 l/m 19,8 km/h
O (3 Bft)
- - -3,7 C 5,6 C
Durchschnitt _ 1,6 C 62 % 1029,4 hPa #0,0 l/m 6,9 km/h (2 Bft) O-SO - -5,1 C -0,2 C
(c) by David Heller